createdAt,value
2023-04-12T00:00:54.735Z,3.56
2023-04-12T00:04:05.988Z,3.62
2023-04-12T00:07:13.119Z,3.68
2023-04-12T00:10:18.881Z,3.76
2023-04-12T00:13:25.246Z,3.72
2023-04-12T00:16:30.980Z,3.68
2023-04-12T00:19:42.120Z,3.75
2023-04-12T00:22:47.896Z,3.73
2023-04-12T00:25:54.283Z,3.68
2023-04-12T00:29:00.044Z,3.68
2023-04-12T00:32:06.720Z,3.68
2023-04-12T00:35:15.242Z,3.64
2023-04-12T00:38:21.866Z,3.67
2023-04-12T00:41:29.349Z,3.65
2023-04-12T00:44:36.494Z,3.55
2023-04-12T00:47:45.362Z,3.46
2023-04-12T00:50:55.995Z,3.45
2023-04-12T00:54:03.869Z,3.52
2023-04-12T00:57:10.397Z,3.56
2023-04-12T01:00:17.732Z,3.48
2023-04-12T01:03:28.087Z,3.47
2023-04-12T01:06:56.040Z,3.45
2023-04-12T01:10:19.563Z,3.47
2023-04-12T01:13:38.613Z,3.41
2023-04-12T01:16:51.918Z,3.42
2023-04-12T01:20:13.917Z,3.39
2023-04-12T01:24:04.952Z,3.37
2023-04-12T01:27:33.821Z,3.38
2023-04-12T01:30:42.534Z,3.38
2023-04-12T01:33:52.727Z,3.36
2023-04-12T01:37:05.056Z,3.37
2023-04-12T01:40:13.909Z,3.39
2023-04-12T01:43:23.281Z,3.37
2023-04-12T01:46:29.622Z,3.26
2023-04-12T01:49:58.881Z,3.26
2023-04-12T01:53:14.372Z,3.18
2023-04-12T01:56:25.734Z,3.12
2023-04-12T01:59:42.230Z,3.12
2023-04-12T02:02:49.641Z,3.25
2023-04-12T02:05:57.094Z,3.21
2023-04-12T02:09:06.650Z,2.93
2023-04-12T02:12:13.045Z,3.19
2023-04-12T02:15:22.445Z,3.27
2023-04-12T02:18:28.244Z,3.20
2023-04-12T02:21:44.918Z,3.23
2023-04-12T02:24:50.585Z,3.29
2023-04-12T02:27:57.795Z,3.41
2023-04-12T02:31:06.975Z,3.45
2023-04-12T02:34:16.323Z,3.43
2023-04-12T02:37:30.809Z,3.35
2023-04-12T02:40:38.216Z,3.22
2023-04-12T02:43:44.798Z,3.27
2023-04-12T02:46:54.612Z,3.38
2023-04-12T02:50:01.146Z,3.17
2023-04-12T02:53:09.534Z,3.22
2023-04-12T02:56:19.404Z,3.29
2023-04-12T02:59:29.849Z,3.28
2023-04-12T03:02:51.821Z,3.33
2023-04-12T03:06:03.700Z,3.35
2023-04-12T03:09:10.523Z,3.25
2023-04-12T03:12:18.551Z,3.30
2023-04-12T03:15:53.306Z,3.23
2023-04-12T03:19:03.361Z,3.13
2023-04-12T03:22:09.280Z,3.13
2023-04-12T03:25:19.546Z,2.97
2023-04-12T03:28:32.117Z,2.92
2023-04-12T03:31:40.250Z,2.44
2023-04-12T03:34:50.329Z,2.73
2023-04-12T03:38:03.122Z,2.76
2023-04-12T03:41:10.260Z,2.78
2023-04-12T03:44:17.504Z,2.82
2023-04-12T03:47:24.363Z,2.74
2023-04-12T03:50:42.388Z,2.73
2023-04-12T03:53:48.260Z,2.77
2023-04-12T03:56:55.465Z,2.70
2023-04-12T04:00:08.901Z,2.55
2023-04-12T04:03:35.395Z,2.63
2023-04-12T04:06:53.273Z,2.76
2023-04-12T04:10:00.314Z,2.68
2023-04-12T04:13:11.364Z,2.58
2023-04-12T04:16:18.388Z,2.71
2023-04-12T04:19:24.483Z,2.86
2023-04-12T04:22:33.826Z,2.83
2023-04-12T04:25:42.126Z,2.94
2023-04-12T04:28:52.036Z,3.07
2023-04-12T04:32:02.541Z,3.04
2023-04-12T04:35:10.869Z,2.98
2023-04-12T04:38:32.899Z,2.99
2023-04-12T04:41:57.760Z,2.86
2023-04-12T04:45:48.932Z,2.89
2023-04-12T04:48:56.986Z,2.99
2023-04-12T04:52:02.578Z,3.11
2023-04-12T04:55:13.707Z,3.02
2023-04-12T04:58:23.257Z,2.98
2023-04-12T05:01:29.750Z,2.92
2023-04-12T05:04:40.232Z,2.94
2023-04-12T05:07:48.629Z,3.07
2023-04-12T05:10:58.580Z,3.11
2023-04-12T05:14:09.353Z,3.09
2023-04-12T05:17:15.779Z,3.09
2023-04-12T05:20:22.545Z,3.17
2023-04-12T05:23:28.705Z,3.19
2023-04-12T05:26:41.196Z,3.20
2023-04-12T05:29:52.140Z,3.24
2023-04-12T05:33:02.236Z,2.57
2023-04-12T05:36:09.754Z,3.31
2023-04-12T05:39:16.840Z,3.24
2023-04-12T05:42:26.267Z,3.31
2023-04-12T05:45:32.821Z,3.35
2023-04-12T05:48:39.622Z,3.38
2023-04-12T05:51:46.063Z,3.39
2023-04-12T05:54:59.026Z,3.53
2023-04-12T05:58:08.932Z,3.54
2023-04-12T06:01:17.032Z,3.54
2023-04-12T06:04:26.432Z,3.50
2023-04-12T06:07:37.226Z,3.49
2023-04-12T06:10:43.814Z,3.56
2023-04-12T06:13:52.903Z,3.56
2023-04-12T06:16:59.362Z,3.57
2023-04-12T06:20:06.181Z,3.54
2023-04-12T06:23:12.637Z,3.63
2023-04-12T06:26:18.974Z,3.81
2023-04-12T06:29:28.766Z,3.92
2023-04-12T06:32:34.458Z,3.94
2023-04-12T06:35:41.222Z,3.96
2023-04-12T06:38:47.033Z,4.00
2023-04-12T06:41:53.508Z,4.04
2023-04-12T06:45:02.490Z,4.06
2023-04-12T06:48:09.029Z,4.00
2023-04-12T06:51:14.880Z,3.97
2023-04-12T06:54:21.406Z,4.00
2023-04-12T06:57:27.215Z,4.08
2023-04-12T07:00:36.816Z,4.23
2023-04-12T07:03:42.648Z,4.44
2023-04-12T07:06:49.368Z,4.64
2023-04-12T07:09:55.472Z,4.81
2023-04-12T07:13:03.942Z,4.89
2023-04-12T07:16:12.927Z,4.96
2023-04-12T07:19:19.687Z,5.06
2023-04-12T07:22:26.126Z,5.18
2023-04-12T07:25:32.654Z,5.27
2023-04-12T07:28:39.475Z,5.42
2023-04-12T07:31:51.692Z,5.53
2023-04-12T07:34:59.923Z,5.64
2023-04-12T07:38:06.604Z,5.74
2023-04-12T07:41:12.845Z,5.95
2023-04-12T07:44:20.110Z,6.15
2023-04-12T07:47:28.606Z,6.30
2023-04-12T07:50:35.021Z,6.40
2023-04-12T07:53:42.346Z,6.43
2023-04-12T07:57:02.802Z,6.54
2023-04-12T08:00:10.632Z,6.64
2023-04-12T08:03:23.481Z,6.77
2023-04-12T08:06:32.360Z,6.84
2023-04-12T08:09:40.399Z,6.93
2023-04-12T08:12:46.109Z,7.05
2023-04-12T08:15:52.880Z,7.11
2023-04-12T08:19:02.031Z,7.24
2023-04-12T08:22:08.642Z,7.34
2023-04-12T08:25:14.690Z,7.32
2023-04-12T08:28:21.263Z,7.33
2023-04-12T08:31:27.997Z,7.40
2023-04-12T08:34:37.917Z,7.49
2023-04-12T08:37:43.984Z,7.66
2023-04-12T08:40:50.918Z,7.71
2023-04-12T08:43:58.766Z,7.68
2023-04-12T08:47:06.437Z,7.75
2023-04-12T08:50:17.073Z,7.78
2023-04-12T08:53:23.575Z,7.87
2023-04-12T08:56:30.521Z,7.91
2023-04-12T08:59:42.243Z,7.90
2023-04-12T09:02:49.206Z,7.86
2023-04-12T09:05:58.614Z,7.62
2023-04-12T09:09:12.788Z,7.63
2023-04-12T09:12:24.522Z,7.64
2023-04-12T09:15:38.007Z,7.77
2023-04-12T09:18:53.223Z,7.28
2023-04-12T09:22:02.173Z,8.03
2023-04-12T09:25:10.423Z,8.08
2023-04-12T09:28:27.529Z,8.20
2023-04-12T09:31:34.355Z,8.38
2023-04-12T09:34:40.599Z,8.29
2023-04-12T09:37:49.837Z,8.53
2023-04-12T09:40:55.984Z,8.50
2023-04-12T09:44:02.700Z,8.49
2023-04-12T09:47:09.628Z,8.15
2023-04-12T09:50:25.272Z,8.27
2023-04-12T09:53:37.731Z,8.23
2023-04-12T09:56:45.074Z,8.22
2023-04-12T09:59:54.221Z,8.13
2023-04-12T10:03:00.942Z,8.00
2023-04-12T10:06:07.847Z,7.90
2023-04-12T10:09:17.959Z,7.92
2023-04-12T10:12:24.165Z,7.92
2023-04-12T10:15:33.449Z,7.88
2023-04-12T10:18:43.831Z,7.89
2023-04-12T10:21:50.445Z,7.96
2023-04-12T10:24:59.023Z,8.04
2023-04-12T10:28:19.514Z,8.14
2023-04-12T10:31:33.241Z,8.25
2023-04-12T10:34:40.734Z,8.40
2023-04-12T10:38:03.557Z,8.55
2023-04-12T10:41:22.424Z,8.54
2023-04-12T10:44:29.846Z,9.05
2023-04-12T10:48:03.613Z,9.39
2023-04-12T10:51:18.773Z,9.68
2023-04-12T10:54:38.472Z,9.97
2023-04-12T10:57:54.375Z,10.12
2023-04-12T11:01:19.177Z,10.09
2023-04-12T11:04:25.912Z,9.88
2023-04-12T11:07:43.977Z,9.79
2023-04-12T11:11:23.367Z,9.63
2023-04-12T11:14:39.966Z,9.50
2023-04-12T11:17:45.673Z,9.53
2023-04-12T11:20:55.426Z,9.63
2023-04-12T11:24:02.848Z,9.71
2023-04-12T11:27:10.214Z,9.75
2023-04-12T11:30:18.947Z,9.83
2023-04-12T11:33:42.113Z,9.90
2023-04-12T11:36:49.162Z,10.03
2023-04-12T11:39:59.133Z,10.13
2023-04-12T11:43:04.776Z,10.25
2023-04-12T11:46:14.331Z,10.27
2023-04-12T11:49:20.622Z,10.38
2023-04-12T11:52:33.941Z,10.47
2023-04-12T11:55:39.514Z,10.50
2023-04-12T11:58:46.090Z,10.58
2023-04-12T12:01:58.049Z,10.79
2023-04-12T12:05:05.535Z,11.01
2023-04-12T12:08:12.393Z,11.27
2023-04-12T12:11:19.438Z,11.46
2023-04-12T12:14:28.315Z,11.60
2023-04-12T12:17:40.975Z,11.71
2023-04-12T12:20:53.745Z,11.81
2023-04-12T12:24:01.117Z,11.85
2023-04-12T12:27:07.211Z,12.01
2023-04-12T12:30:15.146Z,12.08
2023-04-12T12:33:38.897Z,12.11
2023-04-12T12:36:59.032Z,12.12
2023-04-12T12:40:13.917Z,12.19
2023-04-12T12:43:23.199Z,12.12
2023-04-12T12:46:44.671Z,12.08
2023-04-12T12:49:59.197Z,11.97
2023-04-12T12:53:07.032Z,11.79
2023-04-12T12:56:15.386Z,11.52
2023-04-12T12:59:22.288Z,11.25
2023-04-12T13:02:30.143Z,10.95
2023-04-12T13:05:38.732Z,10.89
2023-04-12T13:08:45.157Z,10.80
2023-04-12T13:11:50.946Z,10.69
2023-04-12T13:15:06.883Z,10.37
2023-04-12T13:18:23.223Z,10.41
2023-04-12T13:21:32.631Z,10.56
2023-04-12T13:24:38.765Z,10.72
2023-04-12T13:27:45.313Z,10.63
2023-04-12T13:30:51.282Z,10.72
2023-04-12T13:33:57.816Z,10.78
2023-04-12T13:37:06.626Z,10.92
2023-04-12T13:40:14.706Z,11.04
2023-04-12T13:43:20.358Z,11.19
2023-04-12T13:46:27.248Z,11.28
2023-04-12T13:49:32.883Z,11.37
2023-04-12T13:52:43.047Z,11.41
2023-04-12T13:55:50.448Z,11.44
2023-04-12T13:58:57.140Z,11.45
2023-04-12T14:02:04.828Z,11.43
2023-04-12T14:05:12.454Z,11.34
2023-04-12T14:08:21.159Z,11.22
2023-04-12T14:11:27.955Z,11.16
2023-04-12T14:14:33.527Z,11.13
2023-04-12T14:17:40.111Z,11.14
2023-04-12T14:20:49.472Z,11.17
2023-04-12T14:23:59.087Z,11.19
2023-04-12T14:27:05.216Z,11.18
2023-04-12T14:30:12.616Z,11.16
2023-04-12T14:33:18.242Z,11.19
2023-04-12T14:36:24.674Z,11.20
2023-04-12T14:39:33.649Z,11.26
2023-04-12T14:42:40.823Z,11.27
2023-04-12T14:45:46.665Z,11.33
2023-04-12T14:48:53.172Z,11.33
2023-04-12T14:51:59.630Z,11.44
2023-04-12T14:55:10.924Z,11.58
2023-04-12T14:58:16.636Z,11.65
2023-04-12T15:01:23.927Z,11.72
2023-04-12T15:04:30.422Z,11.79
2023-04-12T15:07:37.069Z,11.81
2023-04-12T15:10:45.456Z,11.75
2023-04-12T15:13:51.997Z,11.70
2023-04-12T15:16:58.322Z,11.63
2023-04-12T15:20:09.481Z,11.53
2023-04-12T15:23:16.219Z,11.48
2023-04-12T15:26:25.396Z,11.44
2023-04-12T15:29:31.255Z,11.44
2023-04-12T15:32:41.929Z,11.43
2023-04-12T15:35:48.032Z,11.50
2023-04-12T15:38:54.714Z,11.55
2023-04-12T15:42:03.436Z,11.54
2023-04-12T15:45:11.237Z,11.55
2023-04-12T15:48:16.788Z,11.56
2023-04-12T15:51:24.212Z,11.57
2023-04-12T15:54:29.968Z,11.67
2023-04-12T15:57:39.184Z,12.01
2023-04-12T16:00:44.761Z,12.45
2023-04-12T16:03:52.340Z,12.99
2023-04-12T16:07:02.193Z,13.43
2023-04-12T16:10:10.119Z,13.93
2023-04-12T16:13:19.728Z,14.45
2023-04-12T16:16:27.381Z,14.91
2023-04-12T16:19:33.707Z,15.24
2023-04-12T16:22:41.285Z,15.45
2023-04-12T16:25:48.213Z,15.52
2023-04-12T16:28:57.868Z,15.47
2023-04-12T16:32:03.633Z,15.30
2023-04-12T16:35:11.030Z,15.07
2023-04-12T16:38:17.939Z,14.70
2023-04-12T16:41:24.645Z,14.38
2023-04-12T16:44:33.098Z,13.91
2023-04-12T16:47:39.840Z,13.52
2023-04-12T16:50:48.161Z,13.14
2023-04-12T16:53:54.796Z,12.81
2023-04-12T16:57:00.417Z,12.51
2023-04-12T17:00:21.443Z,12.16
2023-04-12T17:03:28.216Z,11.92
2023-04-12T17:06:35.405Z,11.73
2023-04-12T17:09:41.112Z,11.51
2023-04-12T17:12:48.938Z,11.28
2023-04-12T17:16:04.035Z,11.00
2023-04-12T17:19:10.765Z,10.78
2023-04-12T17:22:18.392Z,10.60
2023-04-12T17:25:27.104Z,10.44
2023-04-12T17:28:34.987Z,10.32
2023-04-12T17:31:46.276Z,10.16
2023-04-12T17:34:55.018Z,10.08
2023-04-12T17:38:01.881Z,9.97
2023-04-12T17:41:09.492Z,9.86
2023-04-12T17:44:15.980Z,9.72
2023-04-12T17:47:24.494Z,9.59
2023-04-12T17:50:31.390Z,9.49
2023-04-12T17:53:37.265Z,9.41
2023-04-12T17:56:43.779Z,9.28
2023-04-12T17:59:49.932Z,9.12
2023-04-12T18:02:59.840Z,9.01
2023-04-12T18:06:07.018Z,8.89
2023-04-12T18:09:14.012Z,8.80
2023-04-12T18:12:19.798Z,8.71
2023-04-12T18:15:26.530Z,8.59
2023-04-12T18:18:35.963Z,8.48
2023-04-12T18:21:44.246Z,8.38
2023-04-12T18:24:49.876Z,8.26
2023-04-12T18:27:56.439Z,8.16
2023-04-12T18:31:04.999Z,8.09
2023-04-12T18:34:14.485Z,7.97
2023-04-12T18:37:20.246Z,7.88
2023-04-12T18:40:27.720Z,7.77
2023-04-12T18:43:33.524Z,7.65
2023-04-12T18:46:40.294Z,7.61
2023-04-12T18:49:49.691Z,7.53
2023-04-12T18:52:56.664Z,7.45
2023-04-12T18:56:12.306Z,7.38
2023-04-12T18:59:20.700Z,7.35
2023-04-12T19:02:28.754Z,7.33
2023-04-12T19:05:40.598Z,7.23
2023-04-12T19:08:50.009Z,7.16
2023-04-12T19:11:58.711Z,7.08
2023-04-12T19:15:07.912Z,7.07
2023-04-12T19:18:17.278Z,7.00
2023-04-12T19:21:29.028Z,6.96
2023-04-12T19:24:38.054Z,6.89
2023-04-12T19:27:46.518Z,6.83
2023-04-12T19:30:58.840Z,6.74
2023-04-12T19:34:07.434Z,6.71
2023-04-12T19:37:20.266Z,6.68
2023-04-12T19:40:30.932Z,6.61
2023-04-12T19:43:40.341Z,6.57
2023-04-12T19:46:48.871Z,6.55
2023-04-12T19:49:59.145Z,6.55
2023-04-12T19:53:11.372Z,6.48
2023-04-12T19:56:20.915Z,6.42
2023-04-12T19:59:31.083Z,6.33
2023-04-12T20:02:38.667Z,6.27
2023-04-12T20:05:46.380Z,6.22
2023-04-12T20:08:57.065Z,6.19
2023-04-12T20:12:04.275Z,6.12
2023-04-12T20:15:13.528Z,6.09
2023-04-12T20:18:19.720Z,6.03
2023-04-12T20:21:28.060Z,6.00
2023-04-12T20:24:38.005Z,5.97
2023-04-12T20:27:51.804Z,5.91
2023-04-12T20:30:58.107Z,5.84
2023-04-12T20:34:04.871Z,5.79
2023-04-12T20:37:11.584Z,5.76
2023-04-12T20:40:23.566Z,5.72
2023-04-12T20:43:29.361Z,5.70
2023-04-12T20:46:37.710Z,5.71
2023-04-12T20:49:43.579Z,5.67
2023-04-12T20:52:49.900Z,5.62
2023-04-12T20:55:58.608Z,5.39
2023-04-12T20:59:05.004Z,5.56
2023-04-12T21:02:11.975Z,5.53
2023-04-12T21:05:19.226Z,5.47
2023-04-12T21:08:25.558Z,5.40
2023-04-12T21:11:34.861Z,5.40
2023-04-12T21:14:40.694Z,5.41
2023-04-12T21:17:47.354Z,5.40
2023-04-12T21:20:54.645Z,5.40
2023-04-12T21:24:01.395Z,5.36
2023-04-12T21:27:10.583Z,5.37
2023-04-12T21:30:17.697Z,5.37
2023-04-12T21:33:25.107Z,5.35
2023-04-12T21:36:32.028Z,5.35
2023-04-12T21:39:39.214Z,5.32
2023-04-12T21:42:48.576Z,5.30
2023-04-12T21:45:54.929Z,5.26
2023-04-12T21:49:01.528Z,5.24
2023-04-12T21:52:07.502Z,5.24
2023-04-12T21:55:14.028Z,5.20
2023-04-12T21:58:22.351Z,5.17
2023-04-12T22:01:29.263Z,5.15
2023-04-12T22:04:34.789Z,5.10
2023-04-12T22:07:41.804Z,5.13
2023-04-12T22:10:47.826Z,5.12
2023-04-12T22:13:57.565Z,5.09
2023-04-12T22:17:03.296Z,5.07
2023-04-12T22:20:13.219Z,5.04
2023-04-12T22:23:19.942Z,5.03
2023-04-12T22:26:26.349Z,5.02
2023-04-12T22:29:38.009Z,4.96
2023-04-12T22:32:44.748Z,4.91
2023-04-12T22:35:50.777Z,4.84
2023-04-12T22:38:57.271Z,4.78
2023-04-12T22:42:04.369Z,4.74
2023-04-12T22:45:15.458Z,4.65
2023-04-12T22:48:25.238Z,4.66
2023-04-12T22:51:31.913Z,4.59
2023-04-12T22:54:37.524Z,4.55
2023-04-12T22:57:43.939Z,4.51
2023-04-12T23:00:52.447Z,4.45
2023-04-12T23:04:01.483Z,4.43
2023-04-12T23:07:06.962Z,4.38
2023-04-12T23:10:14.035Z,4.35
2023-04-12T23:13:19.693Z,4.29
2023-04-12T23:16:29.185Z,4.37
2023-04-12T23:19:34.766Z,4.35
2023-04-12T23:22:57.409Z,4.34
2023-04-12T23:26:03.525Z,4.37
2023-04-12T23:29:10.309Z,4.34
2023-04-12T23:32:18.969Z,4.28
2023-04-12T23:35:25.311Z,4.27
2023-04-12T23:38:32.938Z,4.23
2023-04-12T23:41:41.071Z,4.18
2023-04-12T23:44:46.878Z,4.19
2023-04-12T23:47:56.247Z,4.17
2023-04-12T23:51:03.249Z,4.13
2023-04-12T23:54:09.957Z,4.15
2023-04-12T23:57:15.940Z,4.14
